sensor_id;sensor_type;location;lat;lon;timestamp;P1;durP1;ratioP1;P2;durP2;ratioP2
61590;SDS011;71994;52.410;-1.966;2023-09-19T00:01:47;4.93;;;0.93;;
61590;SDS011;71994;52.410;-1.966;2023-09-19T00:04:55;2.45;;;1.00;;
61590;SDS011;71994;52.410;-1.966;2023-09-19T00:08:01;3.25;;;0.85;;
61590;SDS011;71994;52.410;-1.966;2023-09-19T00:11:08;2.00;;;0.75;;
61590;SDS011;71994;52.410;-1.966;2023-09-19T00:14:17;2.17;;;0.80;;
61590;SDS011;71994;52.410;-1.966;2023-09-19T00:17:27;2.88;;;0.70;;
61590;SDS011;71994;52.410;-1.966;2023-09-19T00:20:35;3.83;;;1.02;;
61590;SDS011;71994;52.410;-1.966;2023-09-19T00:23:44;2.78;;;0.90;;
61590;SDS011;71994;52.410;-1.966;2023-09-19T00:26:51;3.67;;;0.97;;
61590;SDS011;71994;52.410;-1.966;2023-09-19T00:30:01;2.92;;;0.90;;
61590;SDS011;71994;52.410;-1.966;2023-09-19T00:33:07;2.05;;;1.00;;
61590;SDS011;71994;52.410;-1.966;2023-09-19T00:36:18;3.50;;;1.10;;
61590;SDS011;71994;52.410;-1.966;2023-09-19T00:39:25;3.53;;;1.00;;
61590;SDS011;71994;52.410;-1.966;2023-09-19T00:42:33;3.45;;;0.98;;
61590;SDS011;71994;52.410;-1.966;2023-09-19T00:45:44;3.88;;;1.00;;
61590;SDS011;71994;52.410;-1.966;2023-09-19T00:48:51;1.98;;;0.80;;
61590;SDS011;71994;52.410;-1.966;2023-09-19T00:51:59;1.88;;;0.80;;
61590;SDS011;71994;52.410;-1.966;2023-09-19T00:55:07;3.05;;;0.82;;
61590;SDS011;71994;52.410;-1.966;2023-09-19T00:58:16;1.67;;;0.80;;
61590;SDS011;71994;52.410;-1.966;2023-09-19T01:01:26;2.42;;;0.93;;
61590;SDS011;71994;52.410;-1.966;2023-09-19T01:07:39;1.77;;;0.77;;
61590;SDS011;71994;52.410;-1.966;2023-09-19T01:10:49;2.95;;;0.80;;
61590;SDS011;71994;52.410;-1.966;2023-09-19T01:14:06;4.22;;;1.17;;
61590;SDS011;71994;52.410;-1.966;2023-09-19T01:17:30;2.47;;;1.00;;
61590;SDS011;71994;52.410;-1.966;2023-09-19T01:20:41;3.53;;;0.90;;
61590;SDS011;71994;52.410;-1.966;2023-09-19T01:24:10;2.55;;;0.90;;
61590;SDS011;71994;52.410;-1.966;2023-09-19T01:31:31;2.63;;;0.90;;
61590;SDS011;71994;52.410;-1.966;2023-09-19T01:34:43;2.67;;;0.90;;
61590;SDS011;71994;52.410;-1.966;2023-09-19T01:37:51;2.63;;;1.00;;
61590;SDS011;71994;52.410;-1.966;2023-09-19T01:41:00;3.80;;;1.00;;
61590;SDS011;71994;52.410;-1.966;2023-09-19T01:44:17;2.08;;;0.82;;
61590;SDS011;71994;52.410;-1.966;2023-09-19T01:47:35;1.90;;;0.82;;
61590;SDS011;71994;52.410;-1.966;2023-09-19T01:50:44;3.63;;;1.17;;
61590;SDS011;71994;52.410;-1.966;2023-09-19T01:53:59;2.90;;;1.05;;
61590;SDS011;71994;52.410;-1.966;2023-09-19T01:57:09;3.10;;;1.05;;
61590;SDS011;71994;52.410;-1.966;2023-09-19T02:00:25;3.33;;;1.00;;
61590;SDS011;71994;52.410;-1.966;2023-09-19T02:03:36;3.67;;;1.00;;
61590;SDS011;71994;52.410;-1.966;2023-09-19T02:06:47;3.45;;;1.10;;
61590;SDS011;71994;52.410;-1.966;2023-09-19T02:09:54;3.63;;;0.98;;
61590;SDS011;71994;52.410;-1.966;2023-09-19T02:13:01;2.45;;;0.85;;
61590;SDS011;71994;52.410;-1.966;2023-09-19T02:16:09;2.30;;;0.70;;
61590;SDS011;71994;52.410;-1.966;2023-09-19T02:19:18;4.30;;;1.10;;
61590;SDS011;71994;52.410;-1.966;2023-09-19T02:22:24;2.23;;;0.90;;
61590;SDS011;71994;52.410;-1.966;2023-09-19T02:25:32;3.38;;;0.88;;
61590;SDS011;71994;52.410;-1.966;2023-09-19T02:28:38;2.70;;;0.93;;
61590;SDS011;71994;52.410;-1.966;2023-09-19T02:31:44;2.10;;;0.93;;
61590;SDS011;71994;52.410;-1.966;2023-09-19T02:34:53;2.97;;;1.00;;
61590;SDS011;71994;52.410;-1.966;2023-09-19T02:38:00;2.22;;;0.73;;
61590;SDS011;71994;52.410;-1.966;2023-09-19T02:41:08;2.70;;;0.90;;
61590;SDS011;71994;52.410;-1.966;2023-09-19T02:44:15;2.72;;;0.93;;
61590;SDS011;71994;52.410;-1.966;2023-09-19T02:47:22;2.75;;;0.90;;
61590;SDS011;71994;52.410;-1.966;2023-09-19T02:50:32;3.30;;;1.08;;
61590;SDS011;71994;52.410;-1.966;2023-09-19T02:53:39;3.17;;;0.95;;
61590;SDS011;71994;52.410;-1.966;2023-09-19T02:56:45;2.88;;;0.93;;
61590;SDS011;71994;52.410;-1.966;2023-09-19T02:59:52;2.97;;;0.80;;
61590;SDS011;71994;52.410;-1.966;2023-09-19T03:02:58;3.60;;;1.00;;
61590;SDS011;71994;52.410;-1.966;2023-09-19T03:06:09;2.17;;;0.85;;
61590;SDS011;71994;52.410;-1.966;2023-09-19T03:09:15;3.27;;;1.07;;
61590;SDS011;71994;52.410;-1.966;2023-09-19T03:12:21;3.42;;;1.02;;
61590;SDS011;71994;52.410;-1.966;2023-09-19T03:15:28;3.17;;;1.10;;
61590;SDS011;71994;52.410;-1.966;2023-09-19T03:18:34;2.72;;;0.80;;
61590;SDS011;71994;52.410;-1.966;2023-09-19T03:21:43;2.55;;;0.93;;
61590;SDS011;71994;52.410;-1.966;2023-09-19T03:24:51;2.60;;;0.93;;
61590;SDS011;71994;52.410;-1.966;2023-09-19T03:27:58;2.17;;;0.75;;
61590;SDS011;71994;52.410;-1.966;2023-09-19T03:31:08;2.13;;;0.80;;
61590;SDS011;71994;52.410;-1.966;2023-09-19T03:34:15;2.80;;;0.80;;
61590;SDS011;71994;52.410;-1.966;2023-09-19T03:37:24;2.97;;;0.90;;
61590;SDS011;71994;52.410;-1.966;2023-09-19T03:40:30;2.47;;;0.90;;
61590;SDS011;71994;52.410;-1.966;2023-09-19T03:43:40;2.90;;;1.00;;
61590;SDS011;71994;52.410;-1.966;2023-09-19T03:46:46;2.63;;;0.90;;
61590;SDS011;71994;52.410;-1.966;2023-09-19T03:49:52;2.75;;;1.10;;
61590;SDS011;71994;52.410;-1.966;2023-09-19T03:53:02;4.50;;;1.00;;
61590;SDS011;71994;52.410;-1.966;2023-09-19T03:56:09;2.22;;;0.90;;
61590;SDS011;71994;52.410;-1.966;2023-09-19T03:59:15;2.72;;;1.00;;
61590;SDS011;71994;52.410;-1.966;2023-09-19T04:02:22;2.08;;;0.88;;
61590;SDS011;71994;52.410;-1.966;2023-09-19T04:05:28;3.33;;;1.00;;
61590;SDS011;71994;52.410;-1.966;2023-09-19T04:08:37;3.00;;;0.90;;
61590;SDS011;71994;52.410;-1.966;2023-09-19T04:11:43;2.43;;;1.10;;
61590;SDS011;71994;52.410;-1.966;2023-09-19T04:14:50;2.72;;;0.90;;
61590;SDS011;71994;52.410;-1.966;2023-09-19T04:17:56;2.70;;;1.08;;
61590;SDS011;71994;52.410;-1.966;2023-09-19T04:21:02;3.45;;;1.15;;
61590;SDS011;71994;52.410;-1.966;2023-09-19T04:24:11;2.72;;;1.00;;
61590;SDS011;71994;52.410;-1.966;2023-09-19T04:27:18;2.67;;;0.98;;
61590;SDS011;71994;52.410;-1.966;2023-09-19T04:30:25;2.63;;;1.15;;
61590;SDS011;71994;52.410;-1.966;2023-09-19T04:33:31;2.63;;;0.90;;
61590;SDS011;71994;52.410;-1.966;2023-09-19T04:36:37;2.53;;;0.90;;
61590;SDS011;71994;52.410;-1.966;2023-09-19T04:39:47;3.03;;;0.95;;
61590;SDS011;71994;52.410;-1.966;2023-09-19T04:42:53;2.23;;;0.87;;
61590;SDS011;71994;52.410;-1.966;2023-09-19T04:46:01;3.03;;;0.90;;
61590;SDS011;71994;52.410;-1.966;2023-09-19T04:49:09;3.15;;;1.08;;
61590;SDS011;71994;52.410;-1.966;2023-09-19T04:52:15;2.03;;;0.82;;
61590;SDS011;71994;52.410;-1.966;2023-09-19T04:55:24;4.20;;;1.30;;
61590;SDS011;71994;52.410;-1.966;2023-09-19T04:58:33;2.95;;;1.20;;
61590;SDS011;71994;52.410;-1.966;2023-09-19T05:01:39;4.03;;;1.00;;
61590;SDS011;71994;52.410;-1.966;2023-09-19T05:04:45;3.17;;;0.98;;
61590;SDS011;71994;52.410;-1.966;2023-09-19T05:07:52;3.28;;;1.20;;
61590;SDS011;71994;52.410;-1.966;2023-09-19T05:11:05;3.70;;;1.05;;
61590;SDS011;71994;52.410;-1.966;2023-09-19T05:14:11;2.38;;;1.10;;
61590;SDS011;71994;52.410;-1.966;2023-09-19T05:17:17;2.72;;;1.00;;
61590;SDS011;71994;52.410;-1.966;2023-09-19T05:20:24;5.00;;;1.05;;
61590;SDS011;71994;52.410;-1.966;2023-09-19T05:23:31;3.20;;;0.95;;
61590;SDS011;71994;52.410;-1.966;2023-09-19T05:26:42;3.60;;;1.05;;
61590;SDS011;71994;52.410;-1.966;2023-09-19T05:32:56;2.40;;;0.80;;
61590;SDS011;71994;52.410;-1.966;2023-09-19T05:36:02;3.15;;;1.02;;
61590;SDS011;71994;52.410;-1.966;2023-09-19T05:39:10;3.08;;;1.00;;
61590;SDS011;71994;52.410;-1.966;2023-09-19T05:42:19;3.63;;;1.00;;
61590;SDS011;71994;52.410;-1.966;2023-09-19T05:45:25;2.43;;;0.90;;
61590;SDS011;71994;52.410;-1.966;2023-09-19T05:48:31;3.88;;;1.00;;
61590;SDS011;71994;52.410;-1.966;2023-09-19T05:51:38;3.10;;;0.82;;
61590;SDS011;71994;52.410;-1.966;2023-09-19T05:54:44;3.58;;;1.00;;
61590;SDS011;71994;52.410;-1.966;2023-09-19T05:57:55;3.88;;;1.20;;
61590;SDS011;71994;52.410;-1.966;2023-09-19T06:01:01;2.53;;;1.37;;
61590;SDS011;71994;52.410;-1.966;2023-09-19T06:04:07;3.20;;;0.93;;
61590;SDS011;71994;52.410;-1.966;2023-09-19T06:07:13;3.45;;;0.90;;
61590;SDS011;71994;52.410;-1.966;2023-09-19T06:10:20;2.88;;;0.90;;
61590;SDS011;71994;52.410;-1.966;2023-09-19T06:13:30;3.60;;;0.90;;
61590;SDS011;71994;52.410;-1.966;2023-09-19T06:16:37;3.08;;;0.90;;
61590;SDS011;71994;52.410;-1.966;2023-09-19T06:19:44;2.33;;;0.90;;
61590;SDS011;71994;52.410;-1.966;2023-09-19T06:22:53;2.05;;;0.80;;
61590;SDS011;71994;52.410;-1.966;2023-09-19T06:25:59;4.72;;;0.88;;
61590;SDS011;71994;52.410;-1.966;2023-09-19T06:29:08;2.22;;;0.90;;
61590;SDS011;71994;52.410;-1.966;2023-09-19T06:32:17;3.53;;;1.08;;
61590;SDS011;71994;52.410;-1.966;2023-09-19T06:35:24;3.22;;;1.00;;
61590;SDS011;71994;52.410;-1.966;2023-09-19T06:38:32;4.50;;;0.98;;
61590;SDS011;71994;52.410;-1.966;2023-09-19T06:41:38;3.55;;;1.10;;
61590;SDS011;71994;52.410;-1.966;2023-09-19T06:44:47;3.65;;;1.20;;
61590;SDS011;71994;52.410;-1.966;2023-09-19T06:47:54;3.13;;;1.00;;
61590;SDS011;71994;52.410;-1.966;2023-09-19T06:51:02;4.82;;;1.00;;
61590;SDS011;71994;52.410;-1.966;2023-09-19T06:54:08;4.53;;;1.17;;
61590;SDS011;71994;52.410;-1.966;2023-09-19T06:57:15;3.05;;;1.00;;
61590;SDS011;71994;52.410;-1.966;2023-09-19T07:00:25;3.25;;;0.93;;
61590;SDS011;71994;52.410;-1.966;2023-09-19T07:03:34;3.20;;;1.17;;
61590;SDS011;71994;52.410;-1.966;2023-09-19T07:06:41;2.30;;;0.80;;
61590;SDS011;71994;52.410;-1.966;2023-09-19T07:09:48;2.55;;;1.00;;
61590;SDS011;71994;52.410;-1.966;2023-09-19T07:12:56;2.53;;;0.82;;
61590;SDS011;71994;52.410;-1.966;2023-09-19T07:16:06;3.15;;;0.90;;
61590;SDS011;71994;52.410;-1.966;2023-09-19T07:19:16;3.42;;;1.17;;
61590;SDS011;71994;52.410;-1.966;2023-09-19T07:22:22;4.22;;;1.10;;
61590;SDS011;71994;52.410;-1.966;2023-09-19T07:25:29;4.40;;;1.13;;
61590;SDS011;71994;52.410;-1.966;2023-09-19T07:28:35;3.67;;;1.25;;
61590;SDS011;71994;52.410;-1.966;2023-09-19T07:31:44;3.95;;;1.27;;
61590;SDS011;71994;52.410;-1.966;2023-09-19T07:34:52;2.47;;;1.30;;
61590;SDS011;71994;52.410;-1.966;2023-09-19T07:37:58;3.78;;;1.20;;
61590;SDS011;71994;52.410;-1.966;2023-09-19T07:41:07;5.10;;;1.20;;
61590;SDS011;71994;52.410;-1.966;2023-09-19T07:44:14;2.70;;;1.20;;
61590;SDS011;71994;52.410;-1.966;2023-09-19T07:47:23;3.03;;;1.10;;
61590;SDS011;71994;52.410;-1.966;2023-09-19T07:50:30;4.40;;;0.93;;
61590;SDS011;71994;52.410;-1.966;2023-09-19T07:53:37;2.25;;;1.10;;
61590;SDS011;71994;52.410;-1.966;2023-09-19T07:56:44;3.55;;;1.10;;
61590;SDS011;71994;52.410;-1.966;2023-09-19T07:59:50;2.45;;;0.90;;
61590;SDS011;71994;52.410;-1.966;2023-09-19T08:03:00;3.97;;;1.08;;
61590;SDS011;71994;52.410;-1.966;2023-09-19T08:06:07;3.10;;;1.20;;
61590;SDS011;71994;52.410;-1.966;2023-09-19T08:09:13;2.63;;;1.20;;
61590;SDS011;71994;52.410;-1.966;2023-09-19T08:12:24;3.00;;;1.30;;
61590;SDS011;71994;52.410;-1.966;2023-09-19T08:15:30;4.60;;;1.10;;
61590;SDS011;71994;52.410;-1.966;2023-09-19T08:18:39;3.38;;;1.02;;
61590;SDS011;71994;52.410;-1.966;2023-09-19T08:21:46;4.25;;;1.10;;
61590;SDS011;71994;52.410;-1.966;2023-09-19T08:24:53;3.42;;;1.15;;
61590;SDS011;71994;52.410;-1.966;2023-09-19T08:28:00;2.80;;;1.10;;
61590;SDS011;71994;52.410;-1.966;2023-09-19T08:31:11;3.30;;;1.02;;
61590;SDS011;71994;52.410;-1.966;2023-09-19T08:34:20;3.28;;;1.10;;
61590;SDS011;71994;52.410;-1.966;2023-09-19T08:37:26;3.20;;;1.15;;
61590;SDS011;71994;52.410;-1.966;2023-09-19T08:40:32;3.53;;;1.42;;
61590;SDS011;71994;52.410;-1.966;2023-09-19T08:43:44;2.55;;;1.10;;
61590;SDS011;71994;52.410;-1.966;2023-09-19T08:46:52;4.85;;;1.20;;
61590;SDS011;71994;52.410;-1.966;2023-09-19T08:50:07;3.13;;;1.10;;
61590;SDS011;71994;52.410;-1.966;2023-09-19T08:53:20;3.55;;;1.23;;
61590;SDS011;71994;52.410;-1.966;2023-09-19T08:56:34;3.70;;;1.00;;
61590;SDS011;71994;52.410;-1.966;2023-09-19T08:59:42;2.63;;;1.20;;
61590;SDS011;71994;52.410;-1.966;2023-09-19T09:02:50;2.83;;;1.00;;
61590;SDS011;71994;52.410;-1.966;2023-09-19T09:06:00;3.72;;;1.13;;
61590;SDS011;71994;52.410;-1.966;2023-09-19T09:09:07;2.28;;;1.10;;
61590;SDS011;71994;52.410;-1.966;2023-09-19T09:12:14;2.20;;;1.00;;
61590;SDS011;71994;52.410;-1.966;2023-09-19T09:15:21;4.63;;;1.30;;
61590;SDS011;71994;52.410;-1.966;2023-09-19T09:18:28;3.65;;;0.98;;
61590;SDS011;71994;52.410;-1.966;2023-09-19T09:21:38;2.92;;;1.20;;
61590;SDS011;71994;52.410;-1.966;2023-09-19T09:24:53;3.13;;;1.10;;
61590;SDS011;71994;52.410;-1.966;2023-09-19T09:28:00;5.03;;;1.30;;
61590;SDS011;71994;52.410;-1.966;2023-09-19T09:31:11;2.70;;;1.08;;
61590;SDS011;71994;52.410;-1.966;2023-09-19T09:34:32;4.28;;;1.02;;
61590;SDS011;71994;52.410;-1.966;2023-09-19T09:37:41;3.13;;;1.25;;
61590;SDS011;71994;52.410;-1.966;2023-09-19T09:40:51;2.47;;;0.90;;
61590;SDS011;71994;52.410;-1.966;2023-09-19T09:44:11;1.85;;;0.80;;
61590;SDS011;71994;52.410;-1.966;2023-09-19T09:47:22;2.10;;;1.00;;
61590;SDS011;71994;52.410;-1.966;2023-09-19T09:50:52;6.75;;;1.45;;
61590;SDS011;71994;52.410;-1.966;2023-09-19T09:54:12;3.47;;;1.10;;
61590;SDS011;71994;52.410;-1.966;2023-09-19T09:57:19;2.35;;;1.15;;
61590;SDS011;71994;52.410;-1.966;2023-09-19T10:00:28;2.60;;;1.00;;
61590;SDS011;71994;52.410;-1.966;2023-09-19T10:03:44;4.88;;;0.93;;
61590;SDS011;71994;52.410;-1.966;2023-09-19T10:06:52;4.25;;;1.20;;
61590;SDS011;71994;52.410;-1.966;2023-09-19T10:10:02;2.83;;;1.20;;
61590;SDS011;71994;52.410;-1.966;2023-09-19T10:13:18;2.92;;;0.90;;
61590;SDS011;71994;52.410;-1.966;2023-09-19T10:16:26;3.67;;;1.10;;
61590;SDS011;71994;52.410;-1.966;2023-09-19T10:19:36;2.83;;;1.08;;
61590;SDS011;71994;52.410;-1.966;2023-09-19T10:22:49;2.97;;;0.98;;
61590;SDS011;71994;52.410;-1.966;2023-09-19T10:26:02;1.73;;;0.90;;
61590;SDS011;71994;52.410;-1.966;2023-09-19T10:29:12;4.25;;;0.90;;
61590;SDS011;71994;52.410;-1.966;2023-09-19T10:32:21;3.53;;;1.05;;
61590;SDS011;71994;52.410;-1.966;2023-09-19T10:35:45;1.70;;;0.70;;
61590;SDS011;71994;52.410;-1.966;2023-09-19T10:38:54;6.45;;;1.02;;
61590;SDS011;71994;52.410;-1.966;2023-09-19T10:42:07;1.60;;;0.80;;
61590;SDS011;71994;52.410;-1.966;2023-09-19T10:45:19;3.50;;;1.00;;
61590;SDS011;71994;52.410;-1.966;2023-09-19T10:48:29;2.22;;;0.82;;
61590;SDS011;71994;52.410;-1.966;2023-09-19T10:51:39;2.92;;;0.70;;
61590;SDS011;71994;52.410;-1.966;2023-09-19T10:54:50;1.95;;;0.82;;
61590;SDS011;71994;52.410;-1.966;2023-09-19T10:58:02;1.52;;;0.70;;
61590;SDS011;71994;52.410;-1.966;2023-09-19T11:01:17;3.00;;;0.75;;
61590;SDS011;71994;52.410;-1.966;2023-09-19T11:04:24;2.08;;;0.90;;
61590;SDS011;71994;52.410;-1.966;2023-09-19T11:07:32;2.20;;;0.63;;
61590;SDS011;71994;52.410;-1.966;2023-09-19T11:11:08;1.45;;;0.75;;
61590;SDS011;71994;52.410;-1.966;2023-09-19T11:14:55;2.65;;;0.80;;
61590;SDS011;71994;52.410;-1.966;2023-09-19T11:18:01;2.47;;;0.70;;
61590;SDS011;71994;52.410;-1.966;2023-09-19T11:21:40;3.15;;;0.90;;
61590;SDS011;71994;52.410;-1.966;2023-09-19T11:29:01;2.92;;;0.80;;
61590;SDS011;71994;52.410;-1.966;2023-09-19T11:36:11;1.02;;;0.60;;
61590;SDS011;71994;52.410;-1.966;2023-09-19T11:39:24;2.90;;;0.70;;
61590;SDS011;71994;52.410;-1.966;2023-09-19T11:42:41;1.00;;;0.60;;
61590;SDS011;71994;52.410;-1.966;2023-09-19T11:46:07;1.33;;;0.60;;
61590;SDS011;71994;52.410;-1.966;2023-09-19T11:49:14;1.55;;;0.70;;
61590;SDS011;71994;52.410;-1.966;2023-09-19T11:52:26;1.23;;;0.70;;
61590;SDS011;71994;52.410;-1.966;2023-09-19T11:55:37;1.38;;;0.70;;
61590;SDS011;71994;52.410;-1.966;2023-09-19T11:58:45;1.85;;;0.63;;
61590;SDS011;71994;52.410;-1.966;2023-09-19T12:02:00;1.55;;;0.70;;
61590;SDS011;71994;52.410;-1.966;2023-09-19T12:05:12;2.17;;;0.77;;
61590;SDS011;71994;52.410;-1.966;2023-09-19T12:08:19;2.03;;;0.80;;
61590;SDS011;71994;52.410;-1.966;2023-09-19T12:11:27;3.88;;;0.68;;
61590;SDS011;71994;52.410;-1.966;2023-09-19T12:14:35;1.20;;;0.63;;
61590;SDS011;71994;52.410;-1.966;2023-09-19T12:17:46;0.77;;;0.50;;
61590;SDS011;71994;52.410;-1.966;2023-09-19T12:20:54;1.58;;;0.60;;
61590;SDS011;71994;52.410;-1.966;2023-09-19T12:24:04;1.10;;;0.60;;
61590;SDS011;71994;52.410;-1.966;2023-09-19T12:27:14;1.88;;;0.70;;
61590;SDS011;71994;52.410;-1.966;2023-09-19T12:30:21;1.35;;;0.60;;
61590;SDS011;71994;52.410;-1.966;2023-09-19T12:33:38;2.20;;;0.70;;
61590;SDS011;71994;52.410;-1.966;2023-09-19T12:36:45;0.87;;;0.47;;
61590;SDS011;71994;52.410;-1.966;2023-09-19T12:40:02;1.50;;;0.80;;
61590;SDS011;71994;52.410;-1.966;2023-09-19T12:43:26;1.00;;;0.50;;
61590;SDS011;71994;52.410;-1.966;2023-09-19T12:46:35;1.17;;;0.57;;
61590;SDS011;71994;52.410;-1.966;2023-09-19T12:53:24;0.70;;;0.50;;
61590;SDS011;71994;52.410;-1.966;2023-09-19T12:56:39;1.02;;;0.38;;
61590;SDS011;71994;52.410;-1.966;2023-09-19T12:59:47;0.70;;;0.43;;
61590;SDS011;71994;52.410;-1.966;2023-09-19T13:03:13;1.23;;;0.50;;
61590;SDS011;71994;52.410;-1.966;2023-09-19T13:06:37;1.02;;;0.50;;
61590;SDS011;71994;52.410;-1.966;2023-09-19T13:13:22;1.45;;;0.60;;
61590;SDS011;71994;52.410;-1.966;2023-09-19T13:16:30;0.90;;;0.50;;
61590;SDS011;71994;52.410;-1.966;2023-09-19T13:19:40;0.75;;;0.40;;
61590;SDS011;71994;52.410;-1.966;2023-09-19T13:22:54;1.20;;;0.52;;
61590;SDS011;71994;52.410;-1.966;2023-09-19T13:26:02;1.40;;;0.50;;
61590;SDS011;71994;52.410;-1.966;2023-09-19T13:29:08;2.15;;;0.50;;
61590;SDS011;71994;52.410;-1.966;2023-09-19T13:32:15;0.88;;;0.60;;
61590;SDS011;71994;52.410;-1.966;2023-09-19T13:35:21;1.08;;;0.47;;
61590;SDS011;71994;52.410;-1.966;2023-09-19T13:38:30;0.50;;;0.30;;
61590;SDS011;71994;52.410;-1.966;2023-09-19T13:41:37;0.95;;;0.43;;
61590;SDS011;71994;52.410;-1.966;2023-09-19T13:44:44;0.82;;;0.40;;
61590;SDS011;71994;52.410;-1.966;2023-09-19T13:47:50;1.02;;;0.50;;
61590;SDS011;71994;52.410;-1.966;2023-09-19T13:50:57;0.93;;;0.38;;
61590;SDS011;71994;52.410;-1.966;2023-09-19T13:54:06;1.27;;;0.35;;
61590;SDS011;71994;52.410;-1.966;2023-09-19T13:57:14;0.68;;;0.40;;
61590;SDS011;71994;52.410;-1.966;2023-09-19T14:00:20;1.63;;;0.40;;
61590;SDS011;71994;52.410;-1.966;2023-09-19T14:03:26;1.23;;;0.30;;
61590;SDS011;71994;52.410;-1.966;2023-09-19T14:06:34;2.45;;;0.63;;
61590;SDS011;71994;52.410;-1.966;2023-09-19T14:09:43;2.08;;;0.52;;
61590;SDS011;71994;52.410;-1.966;2023-09-19T14:12:49;2.53;;;0.50;;
61590;SDS011;71994;52.410;-1.966;2023-09-19T14:15:55;0.80;;;0.50;;
61590;SDS011;71994;52.410;-1.966;2023-09-19T14:19:03;1.67;;;0.30;;
61590;SDS011;71994;52.410;-1.966;2023-09-19T14:22:10;2.42;;;0.50;;
61590;SDS011;71994;52.410;-1.966;2023-09-19T14:25:19;1.35;;;0.52;;
61590;SDS011;71994;52.410;-1.966;2023-09-19T14:28:26;1.42;;;0.55;;
61590;SDS011;71994;52.410;-1.966;2023-09-19T14:31:32;1.83;;;0.43;;
61590;SDS011;71994;52.410;-1.966;2023-09-19T14:34:52;0.65;;;0.43;;
61590;SDS011;71994;52.410;-1.966;2023-09-19T14:37:58;1.48;;;0.60;;
61590;SDS011;71994;52.410;-1.966;2023-09-19T14:41:07;0.73;;;0.30;;
61590;SDS011;71994;52.410;-1.966;2023-09-19T14:44:14;2.13;;;0.60;;
61590;SDS011;71994;52.410;-1.966;2023-09-19T14:47:26;1.95;;;0.70;;
61590;SDS011;71994;52.410;-1.966;2023-09-19T14:50:50;3.13;;;0.90;;
61590;SDS011;71994;52.410;-1.966;2023-09-19T14:53:57;1.58;;;0.70;;
61590;SDS011;71994;52.410;-1.966;2023-09-19T14:57:07;2.63;;;0.68;;
61590;SDS011;71994;52.410;-1.966;2023-09-19T15:00:16;2.25;;;0.70;;
61590;SDS011;71994;52.410;-1.966;2023-09-19T15:03:26;1.05;;;0.80;;
61590;SDS011;71994;52.410;-1.966;2023-09-19T15:06:33;2.10;;;0.63;;
61590;SDS011;71994;52.410;-1.966;2023-09-19T15:09:39;3.70;;;0.68;;
61590;SDS011;71994;52.410;-1.966;2023-09-19T15:12:48;2.63;;;0.88;;
61590;SDS011;71994;52.410;-1.966;2023-09-19T15:15:58;3.05;;;0.80;;
61590;SDS011;71994;52.410;-1.966;2023-09-19T15:19:05;2.67;;;0.90;;
61590;SDS011;71994;52.410;-1.966;2023-09-19T15:22:12;2.95;;;0.90;;
61590;SDS011;71994;52.410;-1.966;2023-09-19T15:25:18;6.15;;;1.00;;
61590;SDS011;71994;52.410;-1.966;2023-09-19T15:28:29;3.05;;;0.90;;
61590;SDS011;71994;52.410;-1.966;2023-09-19T15:31:36;2.88;;;0.82;;
61590;SDS011;71994;52.410;-1.966;2023-09-19T15:34:42;4.55;;;1.23;;
61590;SDS011;71994;52.410;-1.966;2023-09-19T15:37:49;3.78;;;0.93;;
61590;SDS011;71994;52.410;-1.966;2023-09-19T15:40:58;3.00;;;0.80;;
61590;SDS011;71994;52.410;-1.966;2023-09-19T15:44:13;4.63;;;1.00;;
61590;SDS011;71994;52.410;-1.966;2023-09-19T15:47:21;2.55;;;0.90;;
61590;SDS011;71994;52.410;-1.966;2023-09-19T15:50:28;3.60;;;0.90;;
61590;SDS011;71994;52.410;-1.966;2023-09-19T15:53:34;3.05;;;1.02;;
61590;SDS011;71994;52.410;-1.966;2023-09-19T15:56:49;3.78;;;1.25;;
61590;SDS011;71994;52.410;-1.966;2023-09-19T15:59:58;3.40;;;1.00;;
61590;SDS011;71994;52.410;-1.966;2023-09-19T16:03:06;2.53;;;0.80;;
61590;SDS011;71994;52.410;-1.966;2023-09-19T16:06:14;3.55;;;1.05;;
61590;SDS011;71994;52.410;-1.966;2023-09-19T16:09:21;4.38;;;1.20;;
61590;SDS011;71994;52.410;-1.966;2023-09-19T16:12:27;3.30;;;0.90;;
61590;SDS011;71994;52.410;-1.966;2023-09-19T16:15:36;6.43;;;1.65;;
61590;SDS011;71994;52.410;-1.966;2023-09-19T16:18:47;3.75;;;1.20;;
61590;SDS011;71994;52.410;-1.966;2023-09-19T16:21:54;2.83;;;0.90;;
61590;SDS011;71994;52.410;-1.966;2023-09-19T16:25:02;3.83;;;1.02;;
61590;SDS011;71994;52.410;-1.966;2023-09-19T16:28:08;3.67;;;1.08;;
61590;SDS011;71994;52.410;-1.966;2023-09-19T16:31:17;3.55;;;1.20;;
61590;SDS011;71994;52.410;-1.966;2023-09-19T16:34:23;3.70;;;1.10;;
61590;SDS011;71994;52.410;-1.966;2023-09-19T16:37:30;4.35;;;1.30;;
61590;SDS011;71994;52.410;-1.966;2023-09-19T16:40:36;2.90;;;0.88;;
61590;SDS011;71994;52.410;-1.966;2023-09-19T16:43:44;2.22;;;1.00;;
61590;SDS011;71994;52.410;-1.966;2023-09-19T16:46:53;2.85;;;1.05;;
61590;SDS011;71994;52.410;-1.966;2023-09-19T16:50:00;3.73;;;1.10;;
61590;SDS011;71994;52.410;-1.966;2023-09-19T16:53:08;3.65;;;0.80;;
61590;SDS011;71994;52.410;-1.966;2023-09-19T16:56:14;4.07;;;1.05;;
61590;SDS011;71994;52.410;-1.966;2023-09-19T16:59:21;2.63;;;1.10;;
61590;SDS011;71994;52.410;-1.966;2023-09-19T17:02:30;3.13;;;1.33;;
61590;SDS011;71994;52.410;-1.966;2023-09-19T17:05:39;2.20;;;1.00;;
61590;SDS011;71994;52.410;-1.966;2023-09-19T17:08:47;3.28;;;1.27;;
61590;SDS011;71994;52.410;-1.966;2023-09-19T17:11:55;3.95;;;0.98;;
61590;SDS011;71994;52.410;-1.966;2023-09-19T17:15:01;3.45;;;1.45;;
61590;SDS011;71994;52.410;-1.966;2023-09-19T17:18:10;2.83;;;1.17;;
61590;SDS011;71994;52.410;-1.966;2023-09-19T17:21:17;3.20;;;1.10;;
61590;SDS011;71994;52.410;-1.966;2023-09-19T17:24:23;2.80;;;1.08;;
61590;SDS011;71994;52.410;-1.966;2023-09-19T17:27:29;2.78;;;0.90;;
61590;SDS011;71994;52.410;-1.966;2023-09-19T17:30:36;2.13;;;0.95;;
61590;SDS011;71994;52.410;-1.966;2023-09-19T17:33:45;4.28;;;1.10;;
61590;SDS011;71994;52.410;-1.966;2023-09-19T17:36:53;2.40;;;0.98;;
61590;SDS011;71994;52.410;-1.966;2023-09-19T17:40:00;2.05;;;0.70;;
61590;SDS011;71994;52.410;-1.966;2023-09-19T17:43:07;3.63;;;1.02;;
61590;SDS011;71994;52.410;-1.966;2023-09-19T17:46:16;2.80;;;1.13;;
61590;SDS011;71994;52.410;-1.966;2023-09-19T17:49:26;3.63;;;1.40;;
61590;SDS011;71994;52.410;-1.966;2023-09-19T17:52:32;3.00;;;1.03;;
61590;SDS011;71994;52.410;-1.966;2023-09-19T17:55:39;2.47;;;1.00;;
61590;SDS011;71994;52.410;-1.966;2023-09-19T17:58:45;2.63;;;0.95;;
61590;SDS011;71994;52.410;-1.966;2023-09-19T18:01:57;3.67;;;1.20;;
61590;SDS011;71994;52.410;-1.966;2023-09-19T18:05:06;2.15;;;1.10;;
61590;SDS011;71994;52.410;-1.966;2023-09-19T18:08:18;2.95;;;0.98;;
61590;SDS011;71994;52.410;-1.966;2023-09-19T18:11:26;2.35;;;0.80;;
61590;SDS011;71994;52.410;-1.966;2023-09-19T18:14:33;5.03;;;1.20;;
61590;SDS011;71994;52.410;-1.966;2023-09-19T18:17:39;2.63;;;1.27;;
61590;SDS011;71994;52.410;-1.966;2023-09-19T18:20:48;3.95;;;1.23;;
61590;SDS011;71994;52.410;-1.966;2023-09-19T18:23:55;4.43;;;1.43;;
61590;SDS011;71994;52.410;-1.966;2023-09-19T18:27:03;2.92;;;1.02;;
61590;SDS011;71994;52.410;-1.966;2023-09-19T18:30:11;3.75;;;1.13;;
61590;SDS011;71994;52.410;-1.966;2023-09-19T18:33:18;2.60;;;1.10;;
61590;SDS011;71994;52.410;-1.966;2023-09-19T18:36:28;5.60;;;1.33;;
61590;SDS011;71994;52.410;-1.966;2023-09-19T18:39:34;2.73;;;1.10;;
61590;SDS011;71994;52.410;-1.966;2023-09-19T18:42:40;3.88;;;1.17;;
61590;SDS011;71994;52.410;-1.966;2023-09-19T18:45:54;2.80;;;1.05;;
61590;SDS011;71994;52.410;-1.966;2023-09-19T18:49:03;3.35;;;1.13;;
61590;SDS011;71994;52.410;-1.966;2023-09-19T18:52:16;4.13;;;1.30;;
61590;SDS011;71994;52.410;-1.966;2023-09-19T18:55:22;6.97;;;1.98;;
61590;SDS011;71994;52.410;-1.966;2023-09-19T18:58:30;7.57;;;1.98;;
61590;SDS011;71994;52.410;-1.966;2023-09-19T19:01:36;6.45;;;2.30;;
61590;SDS011;71994;52.410;-1.966;2023-09-19T19:04:43;6.50;;;2.17;;
61590;SDS011;71994;52.410;-1.966;2023-09-19T19:07:52;7.90;;;2.88;;